VTUU/UBP METAR and TAF weather

Enter ICAO airport designator
Station Type Date Time Source
VTUU METAR 2022/09/28 20:00 UTC NOAA

VTUU 282000Z VRB05KT 6000 -RA OVC020 23/23 Q0997 NOSIG


Station Type Date Time Source
VTUU Decoded METAR 2022/09/28 20:00 UTC NOAA

Ubon Ratchathani, Thailand (VTUU) 15-15N 104-52E 127M
Sep 28, 2022 - 04:00 PM EDT / 2022.09.28 2000 UTC
Wind: Variable at 6 MPH (5 KT):0
Visibility: 3 mile(s):0
Sky conditions: overcast
Weather: light rain
Temperature: 73 F (23 C)
Dew Point: 73 F (23 C)
Relative Humidity: 100%
Pressure (altimeter): 29.44 in. Hg (0997 hPa)
ob: VTUU 282000Z VRB05KT 6000 -RA OVC020 23/23 Q0997 NOSIG
cycle: 20

Station Type Date Time Source
VTUU TAF 2022/09/28 18:36 UTC NOAA

TAF VTUU 281700Z 2818/2918 26015KT 4000 RA BKN030
BECMG 2909/2912 18005KT 7000 SCT030

Example: see airport list